createdAt,value
2022-11-05T00:01:19.651Z,92.52
2022-11-05T00:06:41.218Z,92.71
2022-11-05T00:12:02.688Z,92.79
2022-11-05T00:17:05.482Z,92.78
2022-11-05T00:22:27.152Z,92.53
2022-11-05T00:27:33.186Z,92.68
2022-11-05T00:32:36.073Z,93.03
2022-11-05T00:37:38.865Z,93.51
2022-11-05T00:43:02.120Z,93.28
2022-11-05T00:48:24.108Z,93.53
2022-11-05T00:53:26.943Z,93.94
2022-11-05T00:58:30.215Z,94.39
2022-11-05T01:03:35.294Z,94.19
2022-11-05T01:08:38.699Z,94.64
2022-11-05T01:13:41.594Z,94.58
2022-11-05T01:18:44.397Z,94.83
2022-11-05T01:23:47.260Z,95.30
2022-11-05T01:28:55.095Z,95.46
2022-11-05T01:34:00.654Z,95.62
2022-11-05T01:39:04.004Z,95.70
2022-11-05T01:44:47.161Z,95.66
2022-11-05T01:49:50.399Z,95.74
2022-11-05T01:54:53.290Z,95.94
2022-11-05T02:00:00.104Z,96.34
2022-11-05T02:05:07.488Z,96.27
2022-11-05T02:10:14.529Z,96.76
2022-11-05T02:15:44.878Z,97.07
2022-11-05T02:20:52.031Z,97.36
2022-11-05T02:26:27.516Z,97.32
2022-11-05T02:31:36.310Z,97.32
2022-11-05T02:37:00.373Z,97.34
2022-11-05T02:42:39.572Z,97.47
2022-11-05T02:47:49.797Z,97.57
2022-11-05T02:53:07.883Z,97.83
2022-11-05T02:58:11.232Z,97.64
2022-11-05T03:03:23.148Z,97.74
2022-11-05T03:08:57.449Z,97.97
2022-11-05T03:14:29.713Z,98.29
2022-11-05T03:19:43.697Z,98.30
2022-11-05T03:24:51.279Z,98.58
2022-11-05T03:30:00.848Z,98.53
2022-11-05T03:35:14.869Z,98.59
2022-11-05T03:40:19.184Z,98.70
2022-11-05T03:45:31.988Z,98.75
2022-11-05T03:50:51.633Z,98.92
2022-11-05T03:56:13.525Z,99.18
2022-11-05T04:01:16.608Z,99.55
2022-11-05T04:06:38.173Z,99.58
2022-11-05T04:12:00.007Z,99.53
2022-11-05T04:17:11.503Z,99.81
2022-11-05T04:22:32.976Z,99.67
2022-11-05T04:27:36.047Z,99.87
2022-11-05T04:32:38.769Z,99.95
2022-11-05T04:37:41.516Z,100.00
2022-11-05T04:42:44.284Z,100.00
2022-11-05T04:47:47.053Z,100.00
2022-11-05T04:52:50.149Z,100.00
2022-11-05T04:57:54.491Z,100.00
2022-11-05T05:02:57.272Z,100.00
2022-11-05T05:08:05.514Z,100.00
2022-11-05T05:13:11.888Z,100.00
2022-11-05T05:18:14.937Z,100.00
2022-11-05T05:23:17.797Z,100.00
2022-11-05T05:28:20.853Z,100.00
2022-11-05T05:33:23.609Z,100.00
2022-11-05T05:38:26.401Z,100.00
2022-11-05T05:43:30.785Z,100.00
2022-11-05T05:48:34.610Z,100.00
2022-11-05T05:53:38.796Z,100.00
2022-11-05T05:58:42.203Z,100.00
2022-11-05T06:03:44.995Z,100.00
2022-11-05T06:08:49.194Z,100.00
2022-11-05T06:13:52.220Z,99.95
2022-11-05T06:18:55.060Z,100.00
2022-11-05T06:24:00.134Z,100.00
2022-11-05T06:29:04.268Z,99.94
2022-11-05T06:34:07.190Z,99.75
2022-11-05T06:39:11.399Z,99.85
2022-11-05T06:44:14.307Z,99.87
2022-11-05T06:49:17.165Z,99.90
2022-11-05T06:54:20.100Z,99.85
2022-11-05T06:59:22.921Z,99.81
2022-11-05T07:04:25.950Z,99.52
2022-11-05T07:09:29.484Z,99.39
2022-11-05T07:14:32.379Z,99.21
2022-11-05T07:19:35.271Z,99.35
2022-11-05T07:24:38.064Z,99.39
2022-11-05T07:29:41.030Z,99.08
2022-11-05T07:34:45.257Z,98.89
2022-11-05T07:39:48.036Z,98.82
2022-11-05T07:44:50.836Z,98.83
2022-11-05T07:49:53.667Z,98.94
2022-11-05T07:54:56.535Z,99.09
2022-11-05T07:59:59.446Z,98.92
2022-11-05T08:05:04.257Z,98.96
2022-11-05T08:10:07.907Z,98.91
2022-11-05T08:15:12.094Z,99.20
2022-11-05T08:20:16.495Z,99.20
2022-11-05T08:25:19.347Z,99.52
2022-11-05T08:30:22.366Z,99.20
2022-11-05T08:35:26.589Z,99.58
2022-11-05T08:40:35.058Z,99.63
2022-11-05T08:45:38.873Z,99.59
2022-11-05T08:50:42.227Z,99.92
2022-11-05T08:55:47.646Z,99.91
2022-11-05T09:00:52.487Z,99.92
2022-11-05T09:05:55.819Z,99.80
2022-11-05T09:10:58.659Z,99.75
2022-11-05T09:16:03.700Z,99.75
2022-11-05T09:21:07.826Z,99.79
2022-11-05T09:26:15.252Z,99.91
2022-11-05T09:31:19.649Z,99.43
2022-11-05T09:36:22.440Z,99.54
2022-11-05T09:41:32.214Z,99.35
2022-11-05T09:46:58.727Z,99.66
2022-11-05T09:52:02.602Z,99.56
2022-11-05T09:57:08.031Z,99.58
2022-11-05T10:02:17.101Z,99.63
2022-11-05T10:07:38.037Z,99.63
2022-11-05T10:12:50.362Z,99.75
2022-11-05T10:18:19.272Z,99.88
2022-11-05T10:23:23.476Z,99.62
2022-11-05T10:28:31.008Z,99.43
2022-11-05T10:33:50.663Z,99.19
2022-11-05T10:39:00.125Z,99.30
2022-11-05T10:44:33.414Z,99.04
2022-11-05T10:49:51.252Z,99.03
2022-11-05T10:55:01.009Z,99.04
2022-11-05T11:00:16.804Z,98.71
2022-11-05T11:05:40.292Z,98.87
2022-11-05T11:10:57.624Z,99.05
2022-11-05T11:16:20.737Z,99.04
2022-11-05T11:21:24.263Z,99.15
2022-11-05T11:26:32.201Z,98.76
2022-11-05T11:31:39.851Z,98.45
2022-11-05T11:36:48.989Z,97.99
2022-11-05T11:41:55.103Z,97.52
2022-11-05T11:47:03.907Z,96.80
2022-11-05T11:52:29.626Z,97.03
2022-11-05T11:57:53.334Z,96.36
2022-11-05T12:03:41.092Z,96.51
2022-11-05T12:09:03.643Z,96.29
2022-11-05T12:14:45.158Z,95.91
2022-11-05T12:20:08.153Z,95.83
2022-11-05T12:25:36.630Z,94.69
2022-11-05T12:31:17.353Z,95.05
2022-11-05T12:36:39.027Z,94.57
2022-11-05T12:42:09.707Z,94.42
2022-11-05T12:47:21.631Z,94.76
2022-11-05T12:52:33.652Z,95.21
2022-11-05T12:57:43.160Z,95.12
2022-11-05T13:03:07.137Z,94.75
2022-11-05T13:08:41.751Z,95.17
2022-11-05T13:14:19.881Z,95.62
2022-11-05T13:19:40.675Z,95.73
2022-11-05T13:24:53.152Z,95.77
2022-11-05T13:30:02.502Z,95.77
2022-11-05T13:35:13.515Z,96.30
2022-11-05T13:40:22.547Z,96.16
2022-11-05T13:46:05.396Z,96.21
2022-11-05T13:51:24.894Z,96.97
2022-11-05T13:56:42.602Z,96.96
2022-11-05T14:01:49.943Z,97.38
2022-11-05T14:06:53.885Z,97.17
2022-11-05T14:11:59.194Z,97.41
2022-11-05T14:17:07.832Z,97.66
2022-11-05T14:22:38.403Z,97.50
2022-11-05T14:27:51.028Z,97.49
2022-11-05T14:33:04.364Z,97.51
2022-11-05T14:38:26.445Z,97.50
2022-11-05T14:43:33.860Z,98.05
2022-11-05T14:48:53.943Z,97.82
2022-11-05T14:54:29.588Z,97.74
2022-11-05T14:59:52.236Z,98.05
2022-11-05T15:05:36.044Z,97.78
2022-11-05T15:10:40.658Z,97.90
2022-11-05T15:15:47.048Z,98.17
2022-11-05T15:20:54.814Z,98.31
2022-11-05T15:26:16.217Z,98.53
2022-11-05T15:31:36.337Z,98.67
2022-11-05T15:36:40.328Z,98.77
2022-11-05T15:41:43.142Z,98.99
2022-11-05T15:46:45.992Z,98.60
2022-11-05T15:51:48.782Z,98.70
2022-11-05T15:56:54.731Z,98.73
2022-11-05T16:02:13.821Z,99.01
2022-11-05T16:07:18.201Z,99.14
2022-11-05T16:12:21.145Z,99.20
2022-11-05T16:17:27.423Z,99.42
2022-11-05T16:22:43.106Z,99.70
2022-11-05T16:27:46.505Z,99.33
2022-11-05T16:32:49.654Z,99.11
2022-11-05T16:37:52.855Z,99.04
2022-11-05T16:43:00.850Z,99.18
2022-11-05T16:48:03.920Z,99.17
2022-11-05T16:53:06.809Z,98.93
2022-11-05T16:58:22.729Z,98.86
2022-11-05T17:03:25.888Z,98.84
2022-11-05T17:08:28.733Z,98.78
2022-11-05T17:13:32.038Z,98.82
2022-11-05T17:18:34.946Z,98.98
2022-11-05T17:23:38.150Z,98.72
2022-11-05T17:28:41.419Z,98.70
2022-11-05T17:33:44.449Z,99.15
2022-11-05T17:38:47.279Z,99.27
2022-11-05T17:43:55.697Z,99.17
2022-11-05T17:48:58.494Z,99.23
2022-11-05T17:54:01.427Z,98.84
2022-11-05T17:59:04.270Z,98.60
2022-11-05T18:04:08.902Z,98.95
2022-11-05T18:09:13.233Z,98.77
2022-11-05T18:14:21.324Z,98.57
2022-11-05T18:19:27.861Z,99.28
2022-11-05T18:24:30.679Z,99.71
2022-11-05T18:29:33.605Z,99.66
2022-11-05T18:34:36.401Z,99.24
2022-11-05T18:39:39.647Z,99.55
2022-11-05T18:44:42.512Z,99.64
2022-11-05T18:49:45.315Z,99.80
2022-11-05T18:54:48.084Z,99.71
2022-11-05T18:59:52.161Z,99.71
2022-11-05T19:05:26.881Z,99.74
2022-11-05T19:10:17.841Z,99.80
2022-11-05T19:15:20.672Z,100.00
2022-11-05T19:20:23.542Z,100.00
2022-11-05T19:25:26.463Z,99.98
2022-11-05T19:30:31.291Z,100.00
2022-11-05T19:35:39.913Z,100.00
2022-11-05T19:40:44.184Z,100.00
2022-11-05T19:45:47.169Z,100.00
2022-11-05T19:50:50.102Z,100.00
2022-11-05T19:55:52.931Z,100.00
2022-11-05T20:00:56.133Z,100.00
2022-11-05T20:06:04.856Z,100.00
2022-11-05T20:11:09.220Z,100.00
2022-11-05T20:16:28.519Z,100.00
2022-11-05T20:21:32.009Z,100.00
2022-11-05T20:26:35.350Z,100.00
2022-11-05T20:31:38.118Z,100.00
2022-11-05T20:36:41.475Z,100.00
2022-11-05T20:41:44.297Z,100.00
2022-11-05T20:46:54.243Z,100.00
2022-11-05T20:51:57.451Z,100.00
2022-11-05T20:57:00.467Z,100.00
2022-11-05T21:02:04.059Z,100.00
2022-11-05T21:07:07.084Z,100.00
2022-11-05T21:12:12.795Z,100.00
2022-11-05T21:17:15.593Z,100.00
2022-11-05T21:22:18.459Z,100.00
2022-11-05T21:27:21.239Z,100.00
2022-11-05T21:32:24.024Z,100.00
2022-11-05T21:37:26.845Z,100.00
2022-11-05T21:42:30.058Z,100.00
2022-11-05T21:47:33.004Z,99.96
2022-11-05T21:52:59.101Z,99.94
2022-11-05T21:58:29.699Z,99.99
2022-11-05T22:03:32.962Z,100.00
2022-11-05T22:08:38.088Z,100.00
2022-11-05T22:13:40.873Z,99.96
2022-11-05T22:18:43.781Z,99.97
2022-11-05T22:23:46.590Z,100.00
2022-11-05T22:28:49.451Z,100.00
2022-11-05T22:33:52.812Z,100.00
2022-11-05T22:38:55.575Z,100.00
2022-11-05T22:44:00.379Z,100.00
2022-11-05T22:49:03.625Z,100.00
2022-11-05T22:54:07.622Z,100.00
2022-11-05T22:59:15.361Z,100.00
2022-11-05T23:04:18.180Z,100.00
2022-11-05T23:09:41.247Z,99.97
2022-11-05T23:14:44.048Z,100.00
2022-11-05T23:20:05.660Z,100.00
2022-11-05T23:25:11.203Z,100.00
2022-11-05T23:30:17.502Z,100.00
2022-11-05T23:35:43.086Z,100.00
2022-11-05T23:41:04.727Z,100.00
2022-11-05T23:46:27.218Z,100.00
2022-11-05T23:51:29.950Z,100.00
2022-11-05T23:56:33.016Z,100.00
